Time;durP1;ratioP1;P1;durP2;ratioP2;P2;SDS_P1;SDS_P2;PMS_P1;PMS_P2;Temp;Humidity;BMP_temperature;BMP_pressure;BME280_temperature;BME280_humidity;BME280_pressure;Samples;Min_cycle;Max_cycle;Signal;HPM_P1;HPM_P2
2022/03/31 00:02:13;;;;;;;10.90;9.07;;;7.90;99.90;;;;;;5072915;28;20671;-33
2022/03/31 00:04:39;;;;;;;14.63;8.20;;;8.10;99.90;;;;;;5046515;28;20432;-33
2022/03/31 00:07:05;;;;;;;11.47;9.47;;;7.90;99.90;;;;;;5046979;28;20459;-35
2022/03/31 00:09:31;;;;;;;11.80;8.67;;;7.90;99.90;;;;;;5058931;28;20643;-33
2022/03/31 00:11:59;;;;;;;12.07;8.63;;;7.80;99.90;;;;;;5047862;28;20416;-33
2022/03/31 00:14:26;;;;;;;10.87;8.70;;;8.00;99.90;;;;;;5055014;28;20442;-33
2022/03/31 00:16:53;;;;;;;13.13;9.67;;;7.80;99.90;;;;;;5067151;28;20525;-33
2022/03/31 00:19:18;;;;;;;11.70;9.03;;;7.80;99.90;;;;;;5070565;28;20938;-33
2022/03/31 00:21:44;;;;;;;10.07;8.60;;;7.70;99.90;;;;;;5052544;28;20435;-33
2022/03/31 00:24:10;;;;;;;10.67;9.53;;;8.00;99.90;;;;;;5053833;28;20255;-33
2022/03/31 00:26:35;;;;;;;12.57;9.23;;;7.90;99.90;;;;;;5053762;28;20192;-33
2022/03/31 00:29:01;;;;;;;11.97;10.00;;;7.80;99.90;;;;;;5052856;28;20245;-33
2022/03/31 00:31:27;;;;;;;13.27;8.70;;;7.90;99.90;;;;;;5071915;28;20227;-35
2022/03/31 00:33:53;;;;;;;16.47;9.57;;;7.90;99.90;;;;;;5075180;28;20427;-33
2022/03/31 00:36:18;;;;;;;11.77;8.50;;;7.80;99.90;;;;;;5060331;28;20190;-36
2022/03/31 00:39:28;;;;;;;10.77;9.03;;;7.90;99.90;;;;;;5057027;28;20205;-33
2022/03/31 00:41:38;;;;;;;12.37;8.90;;;7.90;99.90;;;;;;5052195;28;20561;-36
2022/03/31 00:44:05;;;;;;;10.27;9.20;;;7.80;99.90;;;;;;5053162;28;20454;-33
2022/03/31 00:46:31;;;;;;;12.30;9.17;;;7.90;99.90;;;;;;5078382;28;20436;-33
2022/03/31 00:48:57;;;;;;;10.80;9.23;;;8.10;99.90;;;;;;5069309;28;20808;-33
2022/03/31 00:51:22;;;;;;;12.23;9.00;;;8.00;99.90;;;;;;5052072;28;20428;-33
2022/03/31 00:53:48;;;;;;;10.93;9.43;;;7.80;99.90;;;;;;5053252;28;20431;-33
2022/03/31 00:56:16;;;;;;;13.23;9.10;;;7.80;99.90;;;;;;5052904;28;20226;-36
2022/03/31 00:58:43;;;;;;;11.80;9.60;;;7.90;99.90;;;;;;5053016;28;20186;-33
2022/03/31 01:01:10;;;;;;;10.97;8.93;;;7.70;99.90;;;;;;5060007;28;20526;-35
2022/03/31 01:03:36;;;;;;;11.67;8.97;;;7.80;99.90;;;;;;5055017;28;20432;-33
2022/03/31 01:06:02;;;;;;;11.90;9.07;;;7.80;99.90;;;;;;5055832;28;20442;-35
2022/03/31 01:08:27;;;;;;;13.50;10.37;;;7.70;99.90;;;;;;5059171;28;20338;-35
2022/03/31 01:10:53;;;;;;;13.37;9.23;;;7.80;99.90;;;;;;5055764;28;20435;-33
2022/03/31 01:13:19;;;;;;;13.40;10.17;;;7.80;99.90;;;;;;5052859;28;20186;-33
2022/03/31 01:15:45;;;;;;;12.40;11.00;;;7.80;99.90;;;;;;5053634;28;20530;-35
2022/03/31 01:18:11;;;;;;;14.10;10.07;;;7.80;99.90;;;;;;5069513;28;20232;-35
2022/03/31 01:20:37;;;;;;;13.80;9.60;;;7.70;99.90;;;;;;5055446;28;20953;-33
2022/03/31 01:23:09;;;;;;;15.40;9.80;;;7.70;99.90;;;;;;5051386;28;20247;-33
2022/03/31 01:25:35;;;;;;;15.60;10.93;;;7.80;99.90;;;;;;5049122;28;20190;-33
2022/03/31 01:28:00;;;;;;;12.40;9.97;;;7.80;99.90;;;;;;5049774;28;20435;-33
2022/03/31 01:30:26;;;;;;;12.37;9.30;;;7.90;99.90;;;;;;5049950;28;20192;-33
2022/03/31 01:32:52;;;;;;;13.43;10.73;;;8.00;99.90;;;;;;5062056;28;20678;-33
2022/03/31 01:35:18;;;;;;;10.53;9.43;;;7.80;99.90;;;;;;5060006;28;20190;-33
2022/03/31 01:37:45;;;;;;;13.60;11.57;;;7.80;99.90;;;;;;5049312;28;20749;-33
2022/03/31 01:40:12;;;;;;;13.40;10.57;;;7.70;99.90;;;;;;5051024;28;20413;-35
2022/03/31 01:42:39;;;;;;;16.43;10.33;;;8.10;99.90;;;;;;5049156;28;20448;-35
2022/03/31 01:45:08;;;;;;;13.60;11.00;;;7.90;99.90;;;;;;5050370;28;20439;-35
2022/03/31 01:47:33;;;;;;;16.53;10.53;;;7.70;99.90;;;;;;5062490;28;20451;-35
2022/03/31 01:50:01;;;;;;;13.27;10.40;;;7.70;99.90;;;;;;5059311;28;20468;-35
2022/03/31 01:52:28;;;;;;;14.30;10.90;;;7.90;99.90;;;;;;5049245;28;20190;-35
2022/03/31 01:54:54;;;;;;;13.77;10.43;;;7.70;99.90;;;;;;5060135;28;20435;-35
2022/03/31 01:57:19;;;;;;;15.07;10.53;;;7.70;99.90;;;;;;5049423;28;20837;-36
2022/03/31 01:59:45;;;;;;;13.93;10.10;;;8.00;99.90;;;;;;5047450;28;20236;-36
2022/03/31 02:02:13;;;;;;;13.47;9.30;;;7.80;99.90;;;;;;5061621;28;20186;-35
2022/03/31 02:04:40;;;;;;;15.10;10.00;;;7.80;99.90;;;;;;5057185;28;20305;-36
2022/03/31 02:07:06;;;;;;;14.33;11.00;;;7.90;99.90;;;;;;5048944;28;20421;-35
2022/03/31 02:09:32;;;;;;;16.07;10.50;;;7.70;99.90;;;;;;5047760;28;20874;-35
2022/03/31 02:11:58;;;;;;;16.67;12.27;;;7.90;99.90;;;;;;5048795;28;20511;-35
2022/03/31 02:14:25;;;;;;;11.87;10.17;;;7.90;99.90;;;;;;5048421;28;20423;-35
2022/03/31 02:16:51;;;;;;;15.87;10.53;;;7.70;99.90;;;;;;5063191;28;20716;-36
2022/03/31 02:19:18;;;;;;;19.33;10.87;;;7.90;99.90;;;;;;5068322;28;20610;-36
2022/03/31 02:21:44;;;;;;;12.43;10.70;;;7.80;99.90;;;;;;5048191;28;20178;-33
2022/03/31 02:24:11;;;;;;;15.37;11.40;;;7.80;99.90;;;;;;5051660;28;20428;-33
2022/03/31 02:26:37;;;;;;;14.10;11.10;;;7.80;99.90;;;;;;5048484;28;20431;-34
2022/03/31 02:29:03;;;;;;;15.83;10.47;;;8.00;99.90;;;;;;5048062;28;20483;-33
2022/03/31 02:31:32;;;;;;;14.63;11.10;;;7.70;99.90;;;;;;5061819;28;20443;-33
2022/03/31 02:33:58;;;;;;;12.40;10.63;;;7.70;99.90;;;;;;5081242;28;20494;-33
2022/03/31 02:36:26;;;;;;;16.00;11.40;;;7.80;99.90;;;;;;5047925;28;20423;-33
2022/03/31 02:38:52;;;;;;;16.50;11.70;;;7.80;99.90;;;;;;5053837;28;20431;-33
2022/03/31 02:41:19;;;;;;;13.50;10.90;;;7.60;99.90;;;;;;5052870;28;20420;-33
2022/03/31 02:43:45;;;;;;;13.00;10.63;;;7.70;99.90;;;;;;5048420;28;20431;-33
2022/03/31 02:46:11;;;;;;;13.00;10.50;;;7.80;99.90;;;;;;5047463;28;20954;-33
2022/03/31 02:48:36;;;;;;;15.37;10.63;;;7.80;99.90;;;;;;5072676;28;20216;-33
2022/03/31 02:51:02;;;;;;;12.90;10.93;;;7.60;99.90;;;;;;5053790;28;20428;-34
2022/03/31 02:56:12;;;;;;;14.23;11.00;;;7.70;99.90;;;;;;5051855;28;20436;-35
2022/03/31 02:58:38;;;;;;;14.40;10.77;;;7.70;99.90;;;;;;5046597;28;20503;-35
2022/03/31 03:01:05;;;;;;;12.60;11.10;;;7.70;99.90;;;;;;5049296;28;20292;-35
2022/03/31 03:03:32;;;;;;;14.50;12.07;;;7.70;99.90;;;;;;5064055;28;20481;-35
2022/03/31 03:05:58;;;;;;;13.90;11.27;;;7.60;99.90;;;;;;5066238;28;20427;-36
2022/03/31 03:08:27;;;;;;;16.13;11.60;;;8.00;99.90;;;;;;5047682;28;20496;-35
2022/03/31 03:10:53;;;;;;;17.00;12.07;;;7.90;99.90;;;;;;5049936;28;20463;-35
2022/03/31 03:13:19;;;;;;;18.70;12.50;;;7.90;99.90;;;;;;5047881;28;20919;-35
2022/03/31 03:15:46;;;;;;;13.87;10.73;;;8.10;99.90;;;;;;5050421;28;20432;-35
2022/03/31 03:18:11;;;;;;;12.33;11.00;;;7.90;99.90;;;;;;5080130;28;20426;-35
2022/03/31 03:20:37;;;;;;;14.80;12.40;;;7.70;99.90;;;;;;5049822;28;20910;-35
2022/03/31 03:23:03;;;;;;;14.47;12.13;;;7.70;99.90;;;;;;5047383;28;20675;-35
2022/03/31 03:25:29;;;;;;;14.47;12.07;;;7.70;99.90;;;;;;5060753;28;20672;-35
2022/03/31 03:27:54;;;;;;;16.23;12.40;;;7.60;99.90;;;;;;5052995;28;20197;-35
2022/03/31 03:30:20;;;;;;;16.73;12.30;;;7.60;99.90;;;;;;5046039;28;20177;-35
2022/03/31 03:32:47;;;;;;;16.03;12.07;;;7.60;99.90;;;;;;5063047;28;20173;-35
2022/03/31 03:35:14;;;;;;;15.53;11.70;;;7.50;99.90;;;;;;5069586;28;21009;-35
2022/03/31 03:37:41;;;;;;;16.87;12.57;;;7.60;99.90;;;;;;5045545;28;20416;-35
2022/03/31 03:40:08;;;;;;;16.27;12.47;;;7.60;99.90;;;;;;5055711;28;20984;-35
2022/03/31 03:42:34;;;;;;;16.30;13.27;;;7.40;99.90;;;;;;5046916;28;20481;-35
2022/03/31 03:45:02;;;;;;;16.00;13.70;;;7.40;99.90;;;;;;5047031;28;20420;-35
2022/03/31 03:47:28;;;;;;;17.87;13.00;;;7.20;99.90;;;;;;5066098;28;20524;-35
2022/03/31 03:49:53;;;;;;;17.83;13.23;;;7.40;99.90;;;;;;5071826;28;20467;-35
2022/03/31 03:52:19;;;;;;;15.10;11.90;;;7.30;99.90;;;;;;5055313;28;20427;-35
2022/03/31 03:54:45;;;;;;;15.57;12.10;;;7.30;99.90;;;;;;5052201;28;20623;-35
2022/03/31 03:57:11;;;;;;;16.13;11.70;;;7.40;99.90;;;;;;5046832;28;20479;-35
2022/03/31 03:59:37;;;;;;;17.07;13.17;;;7.20;99.90;;;;;;5044883;28;20193;-35
2022/03/31 04:02:04;;;;;;;17.90;13.40;;;7.10;99.90;;;;;;5050684;28;20193;-35
2022/03/31 04:04:30;;;;;;;19.13;13.53;;;7.20;99.90;;;;;;5067708;28;20431;-35
2022/03/31 04:06:56;;;;;;;15.43;11.97;;;7.00;99.90;;;;;;5045249;28;20507;-35
2022/03/31 04:09:22;;;;;;;18.83;12.97;;;7.30;99.90;;;;;;5047539;28;20217;-35
2022/03/31 04:11:48;;;;;;;20.17;12.50;;;7.00;99.90;;;;;;5046090;28;20451;-35
2022/03/31 04:14:14;;;;;;;15.33;11.90;;;7.20;99.90;;;;;;5046513;28;20460;-35
2022/03/31 04:16:40;;;;;;;17.33;12.50;;;7.20;99.90;;;;;;5055106;28;20280;-35
2022/03/31 04:19:08;;;;;;;19.00;13.00;;;6.90;99.90;;;;;;5054425;28;21030;-35
2022/03/31 04:21:35;;;;;;;17.53;12.80;;;7.20;99.90;;;;;;5050922;28;20428;-35
2022/03/31 04:24:00;;;;;;;16.03;12.37;;;7.20;99.90;;;;;;5048703;28;20456;-35
2022/03/31 04:26:26;;;;;;;20.47;12.80;;;6.90;99.90;;;;;;5055754;28;20456;-35
2022/03/31 04:28:52;;;;;;;16.20;12.00;;;7.00;99.90;;;;;;5046519;28;20459;-35
2022/03/31 04:31:17;;;;;;;16.00;11.57;;;7.00;99.90;;;;;;5046415;28;20178;-35
2022/03/31 04:33:43;;;;;;;17.60;12.13;;;7.00;99.90;;;;;;5067533;28;20188;-35
2022/03/31 04:36:09;;;;;;;14.47;11.33;;;7.00;99.90;;;;;;5058677;28;20197;-35
2022/03/31 04:38:34;;;;;;;19.00;11.37;;;7.00;99.90;;;;;;5045404;28;20551;-35
2022/03/31 04:41:00;;;;;;;17.93;11.70;;;6.90;99.90;;;;;;5051687;28;20220;-35
2022/03/31 04:43:26;;;;;;;17.33;11.57;;;6.90;99.90;;;;;;5046819;28;20415;-35
2022/03/31 04:45:51;;;;;;;18.10;12.00;;;6.90;99.90;;;;;;5045818;28;20547;-35
2022/03/31 04:48:17;;;;;;;20.70;12.90;;;6.80;99.90;;;;;;5057719;28;20300;-35
2022/03/31 04:50:43;;;;;;;16.73;12.43;;;6.80;99.90;;;;;;5057689;28;20180;-35
2022/03/31 04:53:09;;;;;;;15.73;10.40;;;7.00;99.90;;;;;;5066052;28;20178;-35
2022/03/31 04:55:35;;;;;;;14.30;10.70;;;6.70;99.90;;;;;;5057261;28;20263;-35
2022/03/31 04:58:01;;;;;;;18.30;11.40;;;6.70;99.90;;;;;;5046313;28;21105;-35
2022/03/31 05:00:27;;;;;;;16.30;10.73;;;6.70;99.90;;;;;;5048592;28;20586;-35
2022/03/31 05:02:52;;;;;;;17.17;11.20;;;6.70;99.90;;;;;;5059167;28;20679;-35
2022/03/31 05:05:18;;;;;;;16.23;11.00;;;6.80;99.90;;;;;;5074197;28;20531;-35
2022/03/31 05:07:44;;;;;;;17.80;10.50;;;7.00;99.90;;;;;;5049833;28;20178;-35
2022/03/31 05:10:09;;;;;;;16.47;11.23;;;6.80;99.90;;;;;;5047953;28;20220;-35
2022/03/31 05:12:35;;;;;;;16.33;11.73;;;6.90;99.90;;;;;;5049696;28;20208;-35
2022/03/31 05:15:01;;;;;;;17.73;11.90;;;6.90;99.90;;;;;;5050289;28;20558;-35
2022/03/31 05:17:32;;;;;;;16.00;12.20;;;6.70;99.90;;;;;;5060434;28;20221;-35
2022/03/31 05:19:58;;;;;;;19.53;11.83;;;6.90;99.90;;;;;;5071717;28;20410;-35
2022/03/31 05:22:24;;;;;;;17.57;12.10;;;6.80;99.90;;;;;;5050661;28;20424;-35
2022/03/31 05:24:49;;;;;;;21.90;12.93;;;6.80;99.90;;;;;;5054249;28;20224;-35
2022/03/31 05:27:15;;;;;;;17.97;12.13;;;7.00;99.90;;;;;;5051950;28;20190;-35
2022/03/31 05:29:41;;;;;;;21.20;13.33;;;6.80;99.90;;;;;;5049058;28;20291;-35
2022/03/31 05:32:08;;;;;;;17.37;12.40;;;6.80;99.90;;;;;;5050566;28;20490;-35
2022/03/31 05:34:35;;;;;;;20.50;13.00;;;7.00;99.90;;;;;;5059668;28;20182;-35
2022/03/31 05:37:03;;;;;;;18.10;12.47;;;6.80;99.90;;;;;;5069616;28;20420;-35
2022/03/31 05:39:30;;;;;;;20.93;13.70;;;6.90;99.90;;;;;;5068611;28;20418;-35
2022/03/31 05:41:55;;;;;;;19.10;13.30;;;6.70;99.90;;;;;;5067304;28;20936;-35
2022/03/31 05:44:23;;;;;;;17.60;12.40;;;6.80;99.90;;;;;;5061567;28;20485;-35
2022/03/31 05:46:49;;;;;;;21.40;14.33;;;6.90;99.90;;;;;;5052224;28;20369;-35
2022/03/31 05:49:15;;;;;;;17.53;11.60;;;7.10;99.90;;;;;;5076181;28;20462;-35
2022/03/31 05:51:41;;;;;;;17.90;13.13;;;6.90;99.90;;;;;;5050636;28;20422;-35
2022/03/31 05:54:07;;;;;;;21.00;13.87;;;7.20;99.90;;;;;;5048989;28;20515;-35
2022/03/31 05:56:34;;;;;;;20.57;12.97;;;7.00;99.90;;;;;;5061794;28;20459;-35
2022/03/31 05:59:00;;;;;;;19.77;13.50;;;6.90;99.90;;;;;;5066359;28;20188;-35
2022/03/31 06:01:26;;;;;;;20.20;12.83;;;6.90;99.90;;;;;;5052137;28;20424;-35
2022/03/31 06:03:52;;;;;;;22.70;14.43;;;7.00;99.90;;;;;;5062413;28;20433;-35
2022/03/31 06:06:18;;;;;;;18.10;13.40;;;7.30;99.90;;;;;;5070536;28;20450;-35
2022/03/31 06:08:43;;;;;;;18.10;13.00;;;7.30;99.90;;;;;;5056499;28;20454;-35
2022/03/31 06:11:09;;;;;;;21.83;13.03;;;7.10;99.90;;;;;;5063573;28;20213;-35
2022/03/31 06:13:35;;;;;;;20.63;14.47;;;7.30;99.90;;;;;;5076407;28;20181;-35
2022/03/31 06:16:00;;;;;;;19.17;12.90;;;7.30;99.90;;;;;;5068577;28;20181;-36
2022/03/31 06:18:26;;;;;;;17.20;12.80;;;7.40;99.90;;;;;;5055808;28;20252;-35
2022/03/31 06:20:52;;;;;;;16.17;12.00;;;7.40;99.90;;;;;;5061307;28;20199;-35
2022/03/31 06:23:18;;;;;;;16.97;12.07;;;7.40;99.90;;;;;;5057222;28;20196;-35
2022/03/31 06:25:44;;;;;;;15.67;11.40;;;7.20;99.90;;;;;;5059150;28;20423;-35
2022/03/31 06:28:11;;;;;;;19.03;12.20;;;7.30;99.90;;;;;;5062153;28;20193;-35
2022/03/31 06:30:36;;;;;;;19.93;12.63;;;7.20;99.90;;;;;;5055540;28;20462;-35
2022/03/31 06:33:02;;;;;;;20.60;13.87;;;7.30;99.90;;;;;;5064160;28;20464;-35
2022/03/31 06:35:28;;;;;;;20.50;11.63;;;7.20;99.90;;;;;;5058832;28;20258;-35
2022/03/31 06:37:54;;;;;;;16.83;11.93;;;7.20;99.90;;;;;;5088960;28;20274;-35
2022/03/31 06:40:20;;;;;;;20.10;14.00;;;7.20;99.90;;;;;;5054582;28;20264;-35
2022/03/31 06:42:47;;;;;;;18.60;13.20;;;7.20;99.90;;;;;;5057035;28;20456;-35
2022/03/31 06:45:15;;;;;;;23.17;12.73;;;7.40;99.90;;;;;;5047741;28;20424;-35
2022/03/31 06:47:42;;;;;;;18.03;13.03;;;7.20;99.90;;;;;;5050348;28;20422;-35
2022/03/31 06:50:09;;;;;;;19.60;13.70;;;7.40;99.90;;;;;;5053725;28;20483;-35
2022/03/31 06:52:34;;;;;;;17.90;13.23;;;7.20;99.90;;;;;;5054187;28;20420;-35
2022/03/31 06:55:00;;;;;;;19.57;14.70;;;7.40;99.90;;;;;;5048775;28;20443;-35
2022/03/31 06:57:26;;;;;;;18.73;14.37;;;7.10;99.90;;;;;;5055509;28;20664;-35
2022/03/31 06:59:52;;;;;;;21.90;14.40;;;7.30;99.90;;;;;;5046976;28;20452;-35
2022/03/31 07:02:17;;;;;;;19.03;13.80;;;7.20;99.90;;;;;;5047712;28;20218;-35
2022/03/31 07:04:43;;;;;;;20.67;13.47;;;7.10;99.90;;;;;;5067341;28;20184;-35
2022/03/31 07:07:09;;;;;;;23.03;15.07;;;7.10;99.90;;;;;;5059451;28;20259;-35
2022/03/31 07:09:35;;;;;;;21.70;14.40;;;7.10;99.90;;;;;;5053505;28;20455;-35
2022/03/31 07:12:00;;;;;;;20.13;14.60;;;7.40;99.90;;;;;;5054875;28;20419;-35
2022/03/31 07:14:26;;;;;;;21.40;14.80;;;7.30;99.90;;;;;;5050163;28;20243;-35
2022/03/31 07:16:52;;;;;;;20.20;15.37;;;7.40;99.90;;;;;;5056482;28;20664;-35
2022/03/31 07:19:18;;;;;;;21.97;15.10;;;7.50;99.90;;;;;;5062353;28;20752;-35
2022/03/31 07:21:43;;;;;;;23.97;15.27;;;7.50;99.90;;;;;;5057945;28;20243;-36
2022/03/31 07:24:09;;;;;;;21.60;14.43;;;7.70;99.90;;;;;;5058036;28;20427;-35
2022/03/31 07:26:35;;;;;;;22.07;15.80;;;7.50;99.90;;;;;;5056556;28;20192;-35
2022/03/31 07:29:03;;;;;;;19.83;14.00;;;7.60;99.90;;;;;;5056926;28;20897;-35
2022/03/31 07:31:29;;;;;;;20.77;14.97;;;7.70;99.90;;;;;;5055162;28;21038;-35
2022/03/31 07:33:57;;;;;;;21.17;12.83;;;7.60;99.90;;;;;;5057440;28;20431;-35
2022/03/31 07:36:23;;;;;;;17.07;12.27;;;7.60;99.90;;;;;;5074628;28;20423;-35
2022/03/31 07:38:49;;;;;;;17.80;12.80;;;7.60;99.90;;;;;;5047592;28;20489;-35
2022/03/31 07:41:15;;;;;;;19.57;12.00;;;7.50;99.90;;;;;;5055704;28;20234;-35
2022/03/31 07:43:42;;;;;;;16.97;12.47;;;7.50;99.90;;;;;;5047882;28;20614;-35
2022/03/31 07:46:07;;;;;;;18.37;12.20;;;7.40;99.90;;;;;;5047264;28;20420;-35
2022/03/31 07:48:33;;;;;;;15.43;12.00;;;7.40;99.90;;;;;;5054569;28;20463;-35
2022/03/31 07:50:59;;;;;;;20.47;13.37;;;7.30;99.90;;;;;;5064893;28;20716;-35
2022/03/31 07:53:26;;;;;;;19.97;12.73;;;7.50;99.90;;;;;;5055716;28;20228;-35
2022/03/31 07:55:54;;;;;;;18.30;13.60;;;7.70;99.90;;;;;;5059724;28;20181;-35
2022/03/31 07:58:20;;;;;;;16.63;12.67;;;7.60;99.90;;;;;;5047036;28;20481;-36
2022/03/31 08:00:52;;;;;;;20.53;14.03;;;7.50;99.90;;;;;;5046531;28;20424;-35
2022/03/31 08:03:18;;;;;;;16.70;12.90;;;7.50;99.90;;;;;;5055258;28;20930;-35
2022/03/31 08:05:45;;;;;;;19.53;11.47;;;7.60;99.90;;;;;;5070870;28;20797;-35
2022/03/31 08:08:11;;;;;;;16.70;12.33;;;7.60;99.90;;;;;;5050221;28;20478;-35
2022/03/31 08:10:37;;;;;;;17.33;12.20;;;7.60;99.90;;;;;;5059402;28;20427;-35
2022/03/31 08:13:03;;;;;;;17.43;11.97;;;7.70;99.90;;;;;;5047006;28;20409;-35
2022/03/31 08:15:29;;;;;;;16.60;12.30;;;7.70;99.90;;;;;;5046581;28;20215;-35
2022/03/31 08:17:55;;;;;;;16.50;11.63;;;7.70;99.90;;;;;;5052128;28;20519;-35
2022/03/31 08:20:21;;;;;;;19.10;12.73;;;7.70;99.90;;;;;;5069242;28;20556;-35
2022/03/31 08:22:47;;;;;;;16.20;11.53;;;7.80;99.90;;;;;;5062199;28;20432;-35
2022/03/31 08:25:14;;;;;;;17.97;12.20;;;7.70;99.90;;;;;;5046263;28;20451;-35
2022/03/31 08:27:40;;;;;;;18.10;11.70;;;7.80;99.90;;;;;;5057110;28;20420;-35
2022/03/31 08:30:10;;;;;;;17.60;11.97;;;7.90;99.90;;;;;;5045906;28;20828;-35
2022/03/31 08:32:39;;;;;;;16.43;11.23;;;7.80;99.90;;;;;;5046743;28;21052;-35
2022/03/31 08:35:07;;;;;;;15.97;11.40;;;7.80;99.90;;;;;;5066960;28;20485;-35
2022/03/31 08:37:33;;;;;;;17.10;11.60;;;7.90;99.90;;;;;;5069578;28;20416;-35
2022/03/31 08:39:59;;;;;;;22.10;12.17;;;7.70;99.90;;;;;;5049991;28;20519;-35
2022/03/31 08:42:24;;;;;;;18.00;12.03;;;8.00;99.90;;;;;;5057222;28;20482;-36
2022/03/31 08:44:51;;;;;;;18.20;13.80;;;7.80;99.90;;;;;;5051282;28;20193;-35
2022/03/31 08:47:19;;;;;;;20.43;13.83;;;8.00;99.90;;;;;;5056841;28;20193;-35
2022/03/31 08:49:48;;;;;;;20.13;14.00;;;7.80;99.90;;;;;;5053218;28;20854;-35
2022/03/31 08:52:14;;;;;;;18.80;13.33;;;7.80;99.90;;;;;;5077851;28;20498;-35
2022/03/31 08:54:40;;;;;;;18.93;13.03;;;7.70;99.90;;;;;;5054214;28;20440;-35
2022/03/31 08:57:06;;;;;;;18.13;13.60;;;7.70;99.90;;;;;;5051907;28;20440;-35
2022/03/31 08:59:32;;;;;;;15.40;12.17;;;7.80;99.90;;;;;;5050378;28;20624;-35
2022/03/31 09:01:58;;;;;;;18.83;14.10;;;7.90;99.90;;;;;;5049881;28;20239;-35
2022/03/31 09:04:25;;;;;;;16.97;11.23;;;7.90;99.90;;;;;;5058734;28;20193;-35
2022/03/31 09:07:05;;;;;;;17.70;12.73;;;7.90;99.90;;;;;;5061106;28;20493;-35
2022/03/31 09:09:31;;;;;;;17.97;12.87;;;7.90;99.90;;;;;;5055035;28;20485;-35
2022/03/31 09:11:57;;;;;;;20.80;14.80;;;8.00;99.90;;;;;;5069112;28;20415;-35
2022/03/31 09:14:31;;;;;;;18.40;12.97;;;7.80;99.90;;;;;;5051458;28;20416;-35
2022/03/31 09:16:57;;;;;;;17.90;13.20;;;7.90;99.90;;;;;;5049837;28;20431;-35
2022/03/31 09:19:25;;;;;;;15.47;12.50;;;7.90;99.90;;;;;;5053897;28;20446;-35
2022/03/31 09:21:53;;;;;;;19.93;13.33;;;8.00;99.90;;;;;;5057058;28;20411;-35
2022/03/31 09:24:21;;;;;;;17.93;13.10;;;7.90;99.90;;;;;;5050128;28;20789;-35
2022/03/31 09:26:48;;;;;;;15.70;12.60;;;8.00;99.90;;;;;;5057476;28;20450;-35
2022/03/31 09:29:15;;;;;;;14.93;10.93;;;8.10;99.90;;;;;;5049795;28;20459;-35
2022/03/31 09:31:41;;;;;;;16.63;11.60;;;8.10;99.90;;;;;;5048722;28;20830;-35
2022/03/31 09:34:08;;;;;;;15.30;11.03;;;8.10;99.90;;;;;;5063210;28;20484;-35
2022/03/31 09:36:35;;;;;;;14.23;11.27;;;8.10;99.90;;;;;;5074681;28;20411;-35
2022/03/31 09:39:13;;;;;;;18.20;12.33;;;8.20;99.90;;;;;;5060692;28;20750;-35
2022/03/31 09:41:40;;;;;;;18.20;12.03;;;8.30;99.90;;;;;;5052282;28;20965;-35
2022/03/31 09:44:15;;;;;;;17.07;12.27;;;8.20;99.90;;;;;;5053541;28;20798;-35
2022/03/31 09:46:42;;;;;;;16.30;11.10;;;8.40;99.90;;;;;;5049194;28;20422;-35
2022/03/31 09:49:11;;;;;;;18.70;11.90;;;8.30;99.90;;;;;;5057348;28;20471;-35
2022/03/31 09:51:37;;;;;;;18.60;12.63;;;8.40;99.90;;;;;;5076757;28;20438;-35
2022/03/31 09:54:04;;;;;;;19.57;13.37;;;8.10;99.90;;;;;;5050252;28;20450;-35
2022/03/31 09:56:38;;;;;;;18.20;12.50;;;8.30;99.90;;;;;;5052850;28;20762;-35
2022/03/31 09:59:05;;;;;;;18.70;13.50;;;8.30;99.90;;;;;;5056537;28;21011;-35
2022/03/31 10:01:31;;;;;;;16.97;12.67;;;8.30;99.90;;;;;;5048594;28;20438;-35
2022/03/31 10:03:57;;;;;;;17.33;12.63;;;8.40;99.90;;;;;;5053865;28;20434;-35
2022/03/31 10:06:26;;;;;;;15.90;11.27;;;8.30;99.90;;;;;;5065753;28;20446;-35
2022/03/31 10:08:53;;;;;;;15.63;12.00;;;8.30;99.90;;;;;;5055410;28;20455;-35
2022/03/31 10:11:21;;;;;;;19.07;12.73;;;8.40;99.90;;;;;;5055162;28;20781;-35
2022/03/31 10:14:11;;;;;;;17.10;12.70;;;8.40;99.90;;;;;;5055045;28;21034;-35
2022/03/31 10:16:57;;;;;;;16.63;12.30;;;8.50;99.90;;;;;;5048984;28;20462;-35
2022/03/31 10:19:30;;;;;;;17.03;13.07;;;8.40;99.90;;;;;;5053768;28;20693;-35
2022/03/31 10:25:10;;;;;;;15.40;11.90;;;8.50;99.90;;;;;;5048838;28;20424;-34
2022/03/31 10:27:41;;;;;;;16.93;13.00;;;8.40;99.90;;;;;;5052274;28;20420;-35
2022/03/31 10:30:08;;;;;;;16.97;13.70;;;8.30;99.90;;;;;;5047564;28;20803;-35
2022/03/31 10:32:33;;;;;;;20.83;13.83;;;8.40;99.90;;;;;;5048637;28;20428;-35
2022/03/31 10:34:59;;;;;;;21.27;14.77;;;8.30;99.90;;;;;;5059919;28;21058;-35
2022/03/31 10:37:37;;;;;;;21.43;15.67;;;8.20;99.90;;;;;;5068977;28;20178;-35
2022/03/31 10:40:09;;;;;;;25.20;14.60;;;8.30;99.90;;;;;;5047703;28;20216;-35
2022/03/31 10:42:36;;;;;;;20.87;14.40;;;8.20;99.90;;;;;;5057823;28;20415;-35
2022/03/31 10:45:13;;;;;;;21.27;14.83;;;8.20;99.90;;;;;;5051025;28;20927;-35
2022/03/31 10:47:41;;;;;;;21.37;15.50;;;8.40;99.90;;;;;;5048314;28;20477;-35
2022/03/31 10:50:09;;;;;;;21.47;15.93;;;8.30;99.90;;;;;;5049588;28;20541;-35
2022/03/31 10:52:35;;;;;;;23.83;16.70;;;8.30;99.90;;;;;;5078866;28;20529;-35
2022/03/31 10:55:14;;;;;;;22.60;15.33;;;8.40;99.90;;;;;;5047921;28;20428;-35
2022/03/31 10:57:45;;;;;;;25.83;14.70;;;8.30;99.90;;;;;;5055923;28;20601;-35
2022/03/31 11:00:14;;;;;;;23.33;15.27;;;8.40;99.90;;;;;;5047476;28;20717;-35
2022/03/31 11:02:45;;;;;;;20.77;16.07;;;8.30;99.90;;;;;;5047473;28;20466;-35
2022/03/31 11:05:12;;;;;;;25.53;16.80;;;8.30;99.90;;;;;;5062324;28;20485;-35
2022/03/31 11:07:38;;;;;;;21.83;16.27;;;8.30;99.90;;;;;;5066498;28;21173;-35
2022/03/31 11:10:13;;;;;;;25.43;17.10;;;8.30;99.90;;;;;;5057438;28;20467;-35
2022/03/31 11:12:40;;;;;;;24.30;18.00;;;8.30;99.90;;;;;;5051037;28;20523;-35
2022/03/31 11:15:17;;;;;;;30.70;18.30;;;8.30;99.90;;;;;;5048029;28;20421;-35
2022/03/31 11:17:43;;;;;;;23.50;17.90;;;8.20;99.90;;;;;;5047345;28;20478;-35
2022/03/31 11:20:21;;;;;;;25.80;17.13;;;8.20;99.90;;;;;;5050658;28;20452;-35
2022/03/31 11:23:03;;;;;;;27.23;17.00;;;8.30;99.90;;;;;;5060663;28;20426;-35
2022/03/31 11:25:30;;;;;;;25.80;16.83;;;8.20;99.90;;;;;;5047717;28;20828;-35
2022/03/31 11:27:59;;;;;;;25.50;18.40;;;8.20;99.90;;;;;;5056988;28;20415;-35
2022/03/31 11:30:30;;;;;;;24.70;17.63;;;8.40;99.90;;;;;;5050203;28;20559;-35
2022/03/31 11:32:57;;;;;;;23.57;16.73;;;8.50;99.90;;;;;;5047425;28;20489;-35
2022/03/31 11:35:25;;;;;;;23.33;17.03;;;8.40;99.90;;;;;;5048595;28;20432;-36
2022/03/31 11:37:52;;;;;;;21.30;16.30;;;8.50;99.90;;;;;;5058085;28;20429;-35
2022/03/31 11:40:20;;;;;;;23.13;16.80;;;8.50;99.90;;;;;;5046536;28;20765;-35
2022/03/31 11:42:46;;;;;;;25.77;17.17;;;8.40;99.90;;;;;;5053980;28;20435;-35
2022/03/31 11:45:34;;;;;;;25.43;15.90;;;8.30;99.90;;;;;;5048554;28;20443;-36
2022/03/31 11:48:05;;;;;;;28.80;17.37;;;8.40;99.90;;;;;;5047224;28;20515;-35
2022/03/31 11:50:34;;;;;;;23.60;17.63;;;8.30;99.90;;;;;;5059072;28;20475;-35
2022/03/31 11:53:00;;;;;;;22.20;16.07;;;8.40;99.90;;;;;;5067117;28;20425;-35
2022/03/31 11:55:27;;;;;;;25.80;17.50;;;8.40;99.90;;;;;;5046884;28;20439;-35
2022/03/31 11:57:56;;;;;;;22.73;17.07;;;8.50;99.90;;;;;;5051228;28;20456;-35
2022/03/31 12:00:29;;;;;;;23.33;16.00;;;8.80;99.90;;;;;;5046601;28;20725;-36
2022/03/31 12:03:00;;;;;;;21.43;16.10;;;8.50;99.90;;;;;;5049746;28;20424;-35
2022/03/31 12:05:27;;;;;;;24.10;15.97;;;8.80;99.90;;;;;;5062734;28;20470;-35
2022/03/31 12:07:53;;;;;;;19.07;14.53;;;9.00;99.90;;;;;;5079682;28;20422;-35
2022/03/31 12:10:20;;;;;;;25.77;17.20;;;8.70;99.90;;;;;;5046603;28;20455;-35
2022/03/31 12:12:48;;;;;;;22.83;16.73;;;9.00;99.90;;;;;;5051454;28;20457;-35
2022/03/31 12:15:19;;;;;;;23.87;16.70;;;8.60;99.90;;;;;;5050875;28;20460;-35
2022/03/31 12:18:05;;;;;;;24.03;15.57;;;8.70;99.90;;;;;;5050720;28;21128;-35
2022/03/31 12:20:33;;;;;;;22.30;15.93;;;8.90;99.90;;;;;;5056268;28;20447;-36
2022/03/31 12:22:59;;;;;;;25.37;16.50;;;8.80;99.90;;;;;;5066883;28;20790;-35
2022/03/31 12:25:33;;;;;;;22.57;14.30;;;8.90;99.90;;;;;;5057511;28;20435;-35
2022/03/31 12:28:03;;;;;;;19.70;14.67;;;8.90;99.90;;;;;;5056492;28;20442;-35
2022/03/31 12:30:46;;;;;;;20.17;14.93;;;9.00;99.90;;;;;;5058391;28;20455;-35
2022/03/31 12:33:28;;;;;;;18.10;13.20;;;8.90;99.90;;;;;;5066564;28;20508;-35
2022/03/31 12:36:07;;;;;;;20.77;14.57;;;9.10;99.90;;;;;;5061772;28;20463;-35
2022/03/31 12:38:48;;;;;;;17.70;12.97;;;9.00;99.90;;;;;;5070250;28;20640;-35
2022/03/31 12:41:33;;;;;;;18.40;13.23;;;9.30;99.90;;;;;;5045801;28;20550;-36
2022/03/31 12:44:02;;;;;;;18.70;13.53;;;9.10;99.90;;;;;;5050551;28;20420;-36
2022/03/31 12:46:52;;;;;;;17.73;12.77;;;9.00;99.90;;;;;;5046210;28;20424;-35